Home > Products > Valid Products > TAF

000
FTUS43 KSGF 111135
TAFSGF
TAF
KSGF 111135Z 1112/1212 05008KT P6SM SCT250
     FM111800 09008KT P6SM BKN250
     FM120000 13006KT P6SM BKN250=



000
FTUS43 KSGF 111135
TAFSGF
TAF
KSGF 111135Z 1112/1212 05008KT P6SM SCT250
     FM111800 09008KT P6SM BKN250
     FM120000 13006KT P6SM BKN250=



000
FTUS43 KSGF 111135
TAFJLN
TAF
KJLN 111135Z 1112/1212 03008KT P6SM SCT250
     FM111800 06008KT P6SM SCT250
     FM120000 08006KT P6SM BKN250=



000
FTUS43 KSGF 111135
TAFJLN
TAF
KJLN 111135Z 1112/1212 03008KT P6SM SCT250
     FM111800 06008KT P6SM SCT250
     FM120000 08006KT P6SM BKN250=



000
FTUS43 KSGF 110526
TAFSGF
TAF
KSGF 110526Z 1106/1206 12006KT P6SM SCT250
     FM111200 06006KT P6SM SCT250
     FM120000 12005KT P6SM BKN250=



000
FTUS43 KSGF 110526
TAFJLN
TAF
KJLN 110526Z 1106/1206 08005KT P6SM SKC
     FM110900 02005KT P6SM SCT250
     FM111800 08008KT P6SM SCT250
     FM120000 12005KT P6SM BKN250=



000
FTUS43 KSGF 110526
TAFJLN
TAF
KJLN 110526Z 1106/1206 08005KT P6SM SKC
     FM110900 02005KT P6SM SCT250
     FM111800 08008KT P6SM SCT250
     FM120000 12005KT P6SM BKN250=



000
FTUS43 KSGF 110526
TAFSGF
TAF
KSGF 110526Z 1106/1206 12006KT P6SM SCT250
     FM111200 06006KT P6SM SCT250
     FM120000 12005KT P6SM BKN250=



000
FTUS43 KSGF 102326
TAFSGF
TAF
KSGF 102326Z 1100/1124 18006KT P6SM SKC
     FM110300 12006KT P6SM SKC
     FM111200 06006KT P6SM SCT250=



000
FTUS43 KSGF 102326
TAFJLN
TAF
KJLN 102326Z 1100/1124 22010KT P6SM SKC
     FM110500 32005KT P6SM SKC
     FM111500 06006KT P6SM SCT250=



000
FTUS43 KSGF 102326
TAFSGF
TAF
KSGF 102326Z 1100/1124 18006KT P6SM SKC
     FM110300 12006KT P6SM SKC
     FM111200 06006KT P6SM SCT250=



000
FTUS43 KSGF 102326
TAFJLN
TAF
KJLN 102326Z 1100/1124 22010KT P6SM SKC
     FM110500 32005KT P6SM SKC
     FM111500 06006KT P6SM SCT250=



000
FTUS43 KSGF 102158 AAA
TAFJLN
TAF AMD
KJLN 102158Z 1022/1118 22012KT P6SM SKC
     FM102300 22008KT P6SM SKC
     FM110500 32005KT P6SM SKC
     FM110800 04008KT P6SM FEW200 SCT250=



000
FTUS43 KSGF 102156 AAA
TAFSGF
TAF AMD
KSGF 102156Z 1022/1118 21010KT P6SM SKC
     FM110100 16006KT P6SM FEW250
     FM110600 07009KT P6SM FEW200 SCT250=



000
FTUS43 KSGF 101720
TAFSGF
TAF
KSGF 101720Z 1018/1118 20012KT P6SM SCT250
     FM110100 16006KT P6SM FEW250
     FM110600 07009KT P6SM FEW200 SCT250=



000
FTUS43 KSGF 101720
TAFJLN
TAF
KJLN 101720Z 1018/1118 21015G22KT P6SM FEW250
     FM102300 22008KT P6SM SKC
     FM110500 32005KT P6SM SKC
     FM110800 04008KT P6SM FEW200 SCT250=



000
FTUS43 KSGF 101125
TAFSGF
TAF
KSGF 101125Z 1012/1112 VRB04KT P6SM SCT100
     FM101400 18008KT P6SM BKN100
     FM101900 20010G18KT P6SM SCT100
     FM110000 21008KT P6SM SCT120=



000
FTUS43 KSGF 101125
TAFJLN
TAF
KJLN 101125Z 1012/1112 20005KT P6SM BKN100
     FM101600 22012G20KT P6SM SCT120
     FM110200 24008KT P6SM SCT120=



000
FTUS43 KSGF 101125
TAFSGF
TAF
KSGF 101125Z 1012/1112 VRB04KT P6SM SCT100
     FM101400 18008KT P6SM BKN100
     FM101900 20010G18KT P6SM SCT100
     FM110000 21008KT P6SM SCT120=



000
FTUS43 KSGF 101125
TAFJLN
TAF
KJLN 101125Z 1012/1112 20005KT P6SM BKN100
     FM101600 22012G20KT P6SM SCT120
     FM110200 24008KT P6SM SCT120=



000
FTUS43 KSGF 100657 AAA
TAFSGF
TAF AMD
KSGF 100657Z 1007/1106 31008KT P6SM SCT100
     FM101400 18006KT P6SM SCT120
     FM101900 21010KT P6SM SKC=



000
FTUS43 KSGF 100657 AAA
TAFSGF
TAF AMD
KSGF 100657Z 1007/1106 31008KT P6SM SCT100
     FM101400 18006KT P6SM SCT120
     FM101900 21010KT P6SM SKC=



000
FTUS43 KSGF 100520
TAFJLN
TAF
KJLN 100520Z 1006/1106 32007KT P6SM FEW250
     FM100900 22004KT P6SM SCT130
     FM101200 17005KT P6SM SCT100
     FM101700 21012G20KT P6SM SKC
     FM110200 25008KT P6SM SKC=



000
FTUS43 KSGF 100520
TAFSGF
TAF
KSGF 100520Z 1006/1106 32015G22KT P6SM SKC
     FM101000 26008KT P6SM SCT100
     FM101400 18006KT P6SM SCT120
     FM101900 21010KT P6SM SKC=



000
FTUS43 KSGF 092320
TAFSGF
TAF
KSGF 092320Z 1000/1024 33015G22KT P6SM SKC
     FM100200 32007KT P6SM SKC
     FM101400 18006KT P6SM SCT120
     FM101900 21010KT P6SM SKC=



000
FTUS43 KSGF 092320
TAFJLN
TAF
KJLN 092320Z 1000/1024 32015G25KT P6SM SKC
     FM100200 32011KT P6SM FEW250
     FM100600 VRB03KT P6SM SCT130
     FM101700 21012G20KT P6SM SKC=



000
FTUS43 KSGF 091720
TAFJLN
TAF
KJLN 091720Z 0918/1018 33015G25KT P6SM SKC
     FM100000 32011KT P6SM FEW250
     FM101000 VRB03KT P6SM SCT130
     FM101700 22007KT P6SM SCT150=



000
FTUS43 KSGF 091720
TAFSGF
TAF
KSGF 091720Z 0918/1018 33022G30KT P6SM SCT040
     FM100000 32014KT P6SM FEW250
     FM101400 28006KT P6SM SCT120=



000
FTUS43 KSGF 091720
TAFSGF
TAF
KSGF 091720Z 0918/1018 33022G30KT P6SM SCT040
     FM100000 32014KT P6SM FEW250
     FM101400 28006KT P6SM SCT120=



000
FTUS43 KSGF 091720
TAFJLN
TAF
KJLN 091720Z 0918/1018 33015G25KT P6SM SKC
     FM100000 32011KT P6SM FEW250
     FM101000 VRB03KT P6SM SCT130
     FM101700 22007KT P6SM SCT150=



000
FTUS43 KSGF 091153 AAA
TAFSGF
TAF AMD
KSGF 091153Z 0912/1012 31010G18KT P6SM SCT040 SCT100
     FM091400 32014G23KT P6SM FEW050
     FM091700 32017G26KT P6SM FEW050
     FM100000 32008KT P6SM SKC
     FM100500 32004KT P6SM SCT100=



000
FTUS43 KSGF 091153 AAA
TAFSGF
TAF AMD
KSGF 091153Z 0912/1012 31010G18KT P6SM SCT040 SCT100
     FM091400 32014G23KT P6SM FEW050
     FM091700 32017G26KT P6SM FEW050
     FM100000 32008KT P6SM SKC
     FM100500 32004KT P6SM SCT100=



000
FTUS43 KSGF 091121
TAFJLN
TAF
KJLN 091121Z 0912/1012 29008KT P6SM SCT100
     FM091400 32016G25KT P6SM SKC
     FM100000 34007KT P6SM SKC
     FM100500 36004KT P6SM SCT100=



000
FTUS43 KSGF 091121
TAFSGF
TAF
KSGF 091121Z 0912/1012 31014G24KT P6SM SCT040 SCT100
     FM091600 32017G26KT P6SM FEW050
     FM100000 32008KT P6SM SKC
     FM100500 32004KT P6SM SCT100=



000
FTUS43 KSGF 090520
TAFSGF
TAF
KSGF 090520Z 0906/1006 31015G22KT P6SM SCT250
     FM091900 32018G26KT P6SM SKC
     FM100000 32008KT P6SM SKC=



000
FTUS43 KSGF 090520
TAFJLN
TAF
KJLN 090520Z 0906/1006 30008KT P6SM SCT250
     FM091400 32016G25KT P6SM SKC
     FM091800 32018G28KT P6SM SKC
     FM100000 32008KT P6SM SKC=



000
FTUS43 KSGF 090520
TAFSGF
TAF
KSGF 090520Z 0906/1006 31015G22KT P6SM SCT250
     FM091900 32018G26KT P6SM SKC
     FM100000 32008KT P6SM SKC=



000
FTUS43 KSGF 090520
TAFJLN
TAF
KJLN 090520Z 0906/1006 30008KT P6SM SCT250
     FM091400 32016G25KT P6SM SKC
     FM091800 32018G28KT P6SM SKC
     FM100000 32008KT P6SM SKC=



000
FTUS43 KSGF 090303 AAA
TAFJLN
TAF AMD
KJLN 090303Z 0903/0924 31012KT P6SM SKC
     FM091400 32016G25KT P6SM SKC=



000
FTUS43 KSGF 090303 AAB
TAFSGF
TAF AMD
KSGF 090303Z 0903/0924 31013KT P6SM SKC
     FM090800 32012KT P6SM SCT250
     FM091400 32015G25KT P6SM SKC=



000
FTUS43 KSGF 082320
TAFJLN
TAF
KJLN 082320Z 0900/0924 32018G30KT P6SM OVC060
     FM090100 32018G29KT P6SM SCT060
     FM090300 31012G20KT P6SM SKC
     FM091400 32016G25KT P6SM SKC=



000
FTUS43 KSGF 082320
TAFSGF
TAF
KSGF 082320Z 0900/0924 32014G25KT P6SM OVC050
     FM090800 32012KT P6SM SCT250
     FM091400 32015G25KT P6SM SKC=



000
FTUS43 KSGF 081720
TAFJLN
TAF
KJLN 081720Z 0818/0918 32025G37KT P6SM BKN040
     FM090100 32018G29KT P6SM SCT060
     FM090200 32017G27KT P6SM BKN080
     FM090500 32014KT P6SM SCT100=



000
FTUS43 KSGF 081720
TAFSGF
TAF
KSGF 081720Z 0818/0918 32024G35KT P6SM -SHSN OVC040
     FM090000 32021G33KT P6SM BKN035
     FM090400 32016KT P6SM BKN040
     FM091100 32014KT P6SM SCT110=



000
FTUS43 KSGF 081414 AAA
TAFSGF
TAF AMD
KSGF 081414Z 0814/0912 31012G20KT P6SM OVC050
     FM081500 32021G32KT P6SM OVC040
      TEMPO 0815/0818 6SM -SHSN OVC030
     FM081800 32020G32KT P6SM OVC025
     FM090100 32012G18KT P6SM OVC050
     FM090800 32011KT P6SM SCT050=



000
FTUS43 KSGF 081414 AAA
TAFJLN
TAF AMD
KJLN 081414Z 0814/0912 30012G22KT P6SM BKN050
     FM081600 31021G32KT P6SM BKN050
     FM090100 31012KT P6SM BKN080
     FM090800 32011KT P6SM SCT080=



000
FTUS43 KSGF 081414 AAA
TAFSGF
TAF AMD
KSGF 081414Z 0814/0912 31012G20KT P6SM OVC050
     FM081500 32021G32KT P6SM OVC040
      TEMPO 0815/0818 6SM -SHSN OVC030
     FM081800 32020G32KT P6SM OVC025
     FM090100 32012G18KT P6SM OVC050
     FM090800 32011KT P6SM SCT050=



000
FTUS43 KSGF 081414 AAA
TAFJLN
TAF AMD
KJLN 081414Z 0814/0912 30012G22KT P6SM BKN050
     FM081600 31021G32KT P6SM BKN050
     FM090100 31012KT P6SM BKN080
     FM090800 32011KT P6SM SCT080=



    US Dept of Commerce
    National Oceanic and Atmospheric Administration
    National Weather Service
    1325 East West Highway
    Silver Spring, MD 20910
    Page Author: NWS Internet Services Team
Disclaimer
Information Quality
Credits
Glossary
Privacy Policy
Freedom of Information Act (FOIA)
About Us
Career Opportunities